createdAt,value
2022-09-07T00:00:13.410Z,1013.62
2022-09-07T00:01:12.551Z,1013.66
2022-09-07T00:02:12.902Z,1013.64
2022-09-07T00:03:13.538Z,1013.67
2022-09-07T00:04:12.792Z,1013.67
2022-09-07T00:05:12.456Z,1013.69
2022-09-07T00:06:13.355Z,1013.68
2022-09-07T00:07:13.252Z,1013.71
2022-09-07T00:08:12.421Z,1013.68
2022-09-07T00:09:13.345Z,1013.66
2022-09-07T00:10:13.235Z,1013.69
2022-09-07T00:11:12.384Z,1013.69
2022-09-07T00:12:12.384Z,1013.71
2022-09-07T00:13:12.459Z,1013.69
2022-09-07T00:14:12.325Z,1013.74
2022-09-07T00:15:13.342Z,1013.69
2022-09-07T00:16:13.196Z,1013.71
2022-09-07T00:17:12.307Z,1013.68
2022-09-07T00:18:13.053Z,1013.65
2022-09-07T00:19:13.128Z,1013.67
2022-09-07T00:20:13.028Z,1013.70
2022-09-07T00:21:12.260Z,1013.71
2022-09-07T00:22:13.098Z,1013.69
2022-09-07T00:23:13.078Z,1013.75
2022-09-07T00:24:12.232Z,1013.74
2022-09-07T00:25:12.316Z,1013.70
2022-09-07T00:26:12.976Z,1013.66
2022-09-07T00:27:13.132Z,1013.69
2022-09-07T00:28:13.045Z,1013.72
2022-09-07T00:29:12.141Z,1013.66
2022-09-07T00:30:12.136Z,1013.65
2022-09-07T00:31:13.056Z,1013.67
2022-09-07T00:32:12.101Z,1013.67
2022-09-07T00:33:13.097Z,1013.65
2022-09-07T00:34:12.971Z,1013.64
2022-09-07T00:35:12.068Z,1013.65
2022-09-07T00:36:12.042Z,1013.62
2022-09-07T00:37:12.940Z,1013.63
2022-09-07T00:38:12.841Z,1013.60
2022-09-07T00:39:12.745Z,1013.58
2022-09-07T00:40:12.136Z,1013.59
2022-09-07T00:41:12.065Z,1013.61
2022-09-07T00:42:11.943Z,1013.55
2022-09-07T00:43:12.875Z,1013.58
2022-09-07T00:44:11.934Z,1013.56
2022-09-07T00:45:13.875Z,1013.56
2022-09-07T00:46:12.092Z,1013.49
2022-09-07T00:47:11.888Z,1013.50
2022-09-07T00:48:12.679Z,1013.47
2022-09-07T00:49:12.809Z,1013.44
2022-09-07T00:50:12.705Z,1013.41
2022-09-07T00:51:13.835Z,1013.40
2022-09-07T00:52:12.774Z,1013.39
2022-09-07T00:53:12.753Z,1013.36
2022-09-07T00:54:12.042Z,1013.41
2022-09-07T00:55:11.747Z,1013.39
2022-09-07T00:56:13.784Z,1013.39
2022-09-07T00:57:11.746Z,1013.41
2022-09-07T00:58:12.739Z,1013.39
2022-09-07T00:59:12.618Z,1013.41
2022-09-07T01:00:11.707Z,1013.37
2022-09-07T01:01:11.699Z,1013.38
2022-09-07T01:02:11.824Z,1013.37
2022-09-07T01:03:11.974Z,1013.34
2022-09-07T01:04:11.640Z,1013.33
2022-09-07T01:05:11.629Z,1013.37
2022-09-07T01:06:12.453Z,1013.34
2022-09-07T01:07:11.678Z,1013.32
2022-09-07T01:08:11.610Z,1013.30
2022-09-07T01:09:11.593Z,1013.28
2022-09-07T01:10:12.332Z,1013.28
2022-09-07T01:11:11.557Z,1013.24
2022-09-07T01:12:12.390Z,1013.25
2022-09-07T01:13:11.620Z,1013.28
2022-09-07T01:14:11.556Z,1013.30
2022-09-07T01:15:12.401Z,1013.33
2022-09-07T01:16:12.323Z,1013.29
2022-09-07T01:17:11.902Z,1013.26
2022-09-07T01:18:11.439Z,1013.30
2022-09-07T01:19:12.235Z,1013.28
2022-09-07T01:20:12.080Z,1013.30
2022-09-07T01:21:12.294Z,1013.29
2022-09-07T01:22:11.439Z,1013.27
2022-09-07T01:23:12.372Z,1013.26
2022-09-07T01:24:11.437Z,1013.27
2022-09-07T01:25:11.365Z,1013.26
2022-09-07T01:26:12.324Z,1013.27
2022-09-07T01:27:11.336Z,1013.25
2022-09-07T01:28:13.279Z,1013.22
2022-09-07T01:29:12.299Z,1013.22
2022-09-07T01:30:11.310Z,1013.22
2022-09-07T01:31:12.136Z,1013.16
2022-09-07T01:32:11.334Z,1013.18
2022-09-07T01:33:12.166Z,1013.15
2022-09-07T01:34:11.218Z,1013.14
2022-09-07T01:35:11.976Z,1013.08
2022-09-07T01:36:12.137Z,1013.12
2022-09-07T01:37:12.040Z,1013.10
2022-09-07T01:38:11.954Z,1013.05
2022-09-07T01:39:13.097Z,1013.00
2022-09-07T01:40:12.047Z,1012.99
2022-09-07T01:41:11.139Z,1012.96
2022-09-07T01:42:12.067Z,1012.94
2022-09-07T01:43:11.978Z,1012.96
2022-09-07T01:44:11.087Z,1012.94
2022-09-07T01:45:12.048Z,1012.92
2022-09-07T01:46:11.318Z,1012.91
2022-09-07T01:47:11.176Z,1012.92
2022-09-07T01:48:12.012Z,1012.94
2022-09-07T01:49:11.253Z,1012.95
2022-09-07T01:50:10.989Z,1012.94
2022-09-07T01:51:11.994Z,1012.92
2022-09-07T01:52:11.881Z,1012.99
2022-09-07T01:53:11.784Z,1012.94
2022-09-07T01:54:11.948Z,1012.90
2022-09-07T01:55:11.085Z,1012.88
2022-09-07T01:56:11.758Z,1012.90
2022-09-07T01:57:11.913Z,1012.86
2022-09-07T01:58:11.823Z,1012.81
2022-09-07T01:59:10.911Z,1012.81
2022-09-07T02:00:11.888Z,1012.81
2022-09-07T02:01:11.783Z,1012.75
2022-09-07T02:02:11.683Z,1012.78
2022-09-07T02:03:11.627Z,1012.77
2022-09-07T02:04:11.756Z,1012.78
2022-09-07T02:05:11.654Z,1012.71
2022-09-07T02:06:10.783Z,1012.75
2022-09-07T02:07:11.727Z,1012.75
2022-09-07T02:08:10.857Z,1012.72
2022-09-07T02:09:11.524Z,1012.77
2022-09-07T02:10:11.687Z,1012.70
2022-09-07T02:11:11.604Z,1012.73
2022-09-07T02:12:11.498Z,1012.69
2022-09-07T02:13:11.657Z,1012.72
2022-09-07T02:14:10.700Z,1012.77
2022-09-07T02:15:10.708Z,1012.76
2022-09-07T02:16:10.687Z,1012.76
2022-09-07T02:17:12.598Z,1012.79
2022-09-07T02:18:11.428Z,1012.87
2022-09-07T02:19:19.486Z,1012.86
2022-09-07T02:20:11.496Z,1012.89
2022-09-07T02:21:11.408Z,1012.92
2022-09-07T02:22:10.571Z,1012.98
2022-09-07T02:23:10.571Z,1012.93
2022-09-07T02:24:10.567Z,1012.97
2022-09-07T02:25:11.530Z,1012.91
2022-09-07T02:26:11.432Z,1012.95
2022-09-07T02:27:11.337Z,1012.90
2022-09-07T02:28:10.500Z,1012.92
2022-09-07T02:29:11.401Z,1012.90
2022-09-07T02:30:10.506Z,1012.87
2022-09-07T02:31:10.508Z,1012.84
2022-09-07T02:32:11.407Z,1012.88
2022-09-07T02:33:10.418Z,1012.88
2022-09-07T02:34:11.173Z,1012.85
2022-09-07T02:35:10.427Z,1012.80
2022-09-07T02:36:11.233Z,1012.80
2022-09-07T02:37:11.143Z,1012.81
2022-09-07T02:38:11.303Z,1012.81
2022-09-07T02:39:10.313Z,1012.76
2022-09-07T02:40:11.223Z,1012.80
2022-09-07T02:41:11.279Z,1012.78
2022-09-07T02:42:11.181Z,1012.82
2022-09-07T02:43:10.295Z,1012.80
2022-09-07T02:44:10.289Z,1012.83
2022-09-07T02:45:10.276Z,1012.82
2022-09-07T02:46:10.398Z,1012.81
2022-09-07T02:47:10.229Z,1012.83
2022-09-07T02:48:11.114Z,1012.84
2022-09-07T02:49:10.197Z,1012.83
2022-09-07T02:50:10.236Z,1012.80
2022-09-07T02:51:11.078Z,1012.79
2022-09-07T02:52:10.201Z,1012.73
2022-09-07T02:53:10.136Z,1012.73
2022-09-07T02:54:10.165Z,1012.73
2022-09-07T02:55:10.948Z,1012.69
2022-09-07T02:56:10.170Z,1012.71
2022-09-07T02:57:10.112Z,1012.71
2022-09-07T02:58:10.070Z,1012.73
2022-09-07T02:59:10.821Z,1012.72
2022-09-07T03:00:10.080Z,1012.70
2022-09-07T03:01:10.938Z,1012.68
2022-09-07T03:02:10.095Z,1012.67
2022-09-07T03:03:10.967Z,1012.68
2022-09-07T03:04:11.987Z,1012.71
2022-09-07T03:05:09.962Z,1012.70
2022-09-07T03:06:10.921Z,1012.72
2022-09-07T03:07:10.820Z,1012.71
2022-09-07T03:08:09.930Z,1012.71
2022-09-07T03:09:10.883Z,1012.64
2022-09-07T03:10:10.795Z,1012.65
2022-09-07T03:11:09.926Z,1012.62
2022-09-07T03:12:10.854Z,1012.63
2022-09-07T03:13:09.847Z,1012.63
2022-09-07T03:14:09.858Z,1012.67
2022-09-07T03:15:09.846Z,1012.68
2022-09-07T03:16:10.736Z,1012.63
2022-09-07T03:17:10.632Z,1012.65
2022-09-07T03:18:10.794Z,1012.64
2022-09-07T03:19:10.186Z,1012.64
2022-09-07T03:20:10.145Z,1012.58
2022-09-07T03:21:10.113Z,1012.60
2022-09-07T03:22:10.175Z,1012.57
2022-09-07T03:23:09.704Z,1012.50
2022-09-07T03:24:09.719Z,1012.48
2022-09-07T03:25:09.753Z,1012.45
2022-09-07T03:26:09.751Z,1012.50
2022-09-07T03:27:09.638Z,1012.49
2022-09-07T03:28:10.608Z,1012.45
2022-09-07T03:29:09.669Z,1012.43
2022-09-07T03:30:10.149Z,1012.42
2022-09-07T03:31:10.654Z,1012.39
2022-09-07T03:32:10.468Z,1012.40
2022-09-07T03:33:10.376Z,1012.37
2022-09-07T03:34:09.607Z,1012.35
2022-09-07T03:35:09.567Z,1012.36
2022-09-07T03:36:10.343Z,1012.33
2022-09-07T03:37:10.520Z,1012.32
2022-09-07T03:38:09.519Z,1012.28
2022-09-07T03:39:10.309Z,1012.28
2022-09-07T03:40:09.584Z,1012.25
2022-09-07T03:41:10.641Z,1012.24
2022-09-07T03:42:09.678Z,1012.22
2022-09-07T03:43:10.452Z,1012.23
2022-09-07T03:44:10.342Z,1012.22
2022-09-07T03:45:09.481Z,1012.20
2022-09-07T03:46:09.462Z,1012.21
2022-09-07T03:47:09.440Z,1012.16
2022-09-07T03:48:09.433Z,1012.15
2022-09-07T03:49:09.363Z,1012.12
2022-09-07T03:50:09.421Z,1012.13
2022-09-07T03:51:10.184Z,1012.12
2022-09-07T03:52:09.323Z,1012.11
2022-09-07T03:53:09.562Z,1012.10
2022-09-07T03:54:10.157Z,1012.11
2022-09-07T03:55:10.063Z,1012.09
2022-09-07T03:56:09.284Z,1012.05
2022-09-07T03:57:09.292Z,1012.07
2022-09-07T03:58:09.317Z,1011.98
2022-09-07T03:59:10.186Z,1011.94
2022-09-07T04:00:10.190Z,1011.97
2022-09-07T04:01:09.274Z,1011.98
2022-09-07T04:02:09.286Z,1012.02
2022-09-07T04:03:10.057Z,1012.03
2022-09-07T04:04:09.166Z,1012.00
2022-09-07T04:05:09.177Z,1012.02
2022-09-07T04:06:09.139Z,1012.02
2022-09-07T04:07:09.928Z,1012.00
2022-09-07T04:08:10.096Z,1011.96
2022-09-07T04:09:09.146Z,1012.02
2022-09-07T04:10:09.926Z,1012.00
2022-09-07T04:11:10.084Z,1011.97
2022-09-07T04:12:09.995Z,1011.95
2022-09-07T04:13:09.892Z,1011.89
2022-09-07T04:14:09.300Z,1011.89
2022-09-07T04:15:09.945Z,1011.89
2022-09-07T04:16:09.831Z,1011.85
2022-09-07T04:17:10.086Z,1011.84
2022-09-07T04:18:08.961Z,1011.84
2022-09-07T04:19:09.034Z,1011.86
2022-09-07T04:20:09.714Z,1011.81
2022-09-07T04:21:08.949Z,1011.83
2022-09-07T04:22:09.441Z,1011.78
2022-09-07T04:23:08.908Z,1011.76
2022-09-07T04:24:09.392Z,1011.74
2022-09-07T04:25:09.734Z,1011.73
2022-09-07T04:26:08.912Z,1011.75
2022-09-07T04:27:09.811Z,1011.74
2022-09-07T04:28:08.844Z,1011.72
2022-09-07T04:29:09.004Z,1011.74
2022-09-07T04:30:08.833Z,1011.74
2022-09-07T04:31:09.023Z,1011.73
2022-09-07T04:32:12.340Z,1011.73
2022-09-07T04:33:09.803Z,1011.74
2022-09-07T04:34:09.646Z,1011.76
2022-09-07T04:35:09.229Z,1011.72
2022-09-07T04:36:09.705Z,1011.72
2022-09-07T04:37:09.625Z,1011.71
2022-09-07T04:38:09.588Z,1011.68
2022-09-07T04:39:08.725Z,1011.64
2022-09-07T04:40:09.647Z,1011.68
2022-09-07T04:41:09.337Z,1011.66
2022-09-07T04:42:08.705Z,1011.70
2022-09-07T04:43:08.718Z,1011.70
2022-09-07T04:44:10.921Z,1011.73
2022-09-07T04:45:09.368Z,1011.81
2022-09-07T04:46:09.568Z,1011.85
2022-09-07T04:47:09.426Z,1011.86
2022-09-07T04:48:08.621Z,1011.89
2022-09-07T04:49:08.584Z,1011.93
2022-09-07T04:50:09.380Z,1011.89
2022-09-07T04:51:09.292Z,1011.89
2022-09-07T04:52:08.509Z,1011.89
2022-09-07T04:53:09.357Z,1011.90
2022-09-07T04:54:09.251Z,1011.91
2022-09-07T04:55:09.424Z,1011.95
2022-09-07T04:56:08.511Z,1011.96
2022-09-07T04:57:09.250Z,1012.02
2022-09-07T04:58:09.384Z,1012.04
2022-09-07T04:59:09.301Z,1012.06
2022-09-07T05:00:08.397Z,1012.05
2022-09-07T05:01:09.405Z,1012.10
2022-09-07T05:02:08.475Z,1012.18
2022-09-07T05:03:08.385Z,1012.22
2022-09-07T05:04:08.352Z,1012.25
2022-09-07T05:05:08.340Z,1012.28
2022-09-07T05:06:08.403Z,1012.41
2022-09-07T05:07:08.302Z,1012.54
2022-09-07T05:08:08.414Z,1012.68
2022-09-07T05:09:08.271Z,1012.84
2022-09-07T05:10:08.413Z,1013.04
2022-09-07T05:11:08.236Z,1013.22
2022-09-07T05:12:08.293Z,1013.34
2022-09-07T05:13:08.293Z,1013.30
2022-09-07T05:14:08.622Z,1013.24
2022-09-07T05:15:08.386Z,1013.17
2022-09-07T05:16:08.981Z,1012.98
2022-09-07T05:17:08.345Z,1012.81
2022-09-07T05:18:08.997Z,1012.82
2022-09-07T05:19:08.166Z,1012.91
2022-09-07T05:20:08.334Z,1013.04
2022-09-07T05:21:08.158Z,1013.13
2022-09-07T05:22:08.107Z,1013.28
2022-09-07T05:23:08.632Z,1013.32
2022-09-07T05:24:08.960Z,1013.30
2022-09-07T05:25:08.387Z,1013.26
2022-09-07T05:26:08.340Z,1013.18
2022-09-07T05:27:08.305Z,1013.09
2022-09-07T05:28:07.983Z,1013.07
2022-09-07T05:31:17.520Z,1013.25
2022-09-07T05:32:08.922Z,1013.18
2022-09-07T05:33:08.011Z,1013.14
2022-09-07T05:35:08.922Z,1012.86
2022-09-07T05:36:07.875Z,1012.80
2022-09-07T05:37:07.938Z,1012.79
2022-09-07T05:38:08.319Z,1012.80
2022-09-07T05:39:08.430Z,1012.92
2022-09-07T05:40:08.744Z,1012.91
2022-09-07T05:41:07.945Z,1012.91
2022-09-07T05:42:08.805Z,1012.90
2022-09-07T05:43:08.645Z,1012.98
2022-09-07T05:45:11.738Z,1012.91
2022-09-07T05:46:07.963Z,1012.89
2022-09-07T05:47:08.570Z,1012.87
2022-09-07T05:48:08.676Z,1012.79
2022-09-07T05:49:08.422Z,1012.80
2022-09-07T05:50:08.366Z,1012.90
2022-09-07T05:51:10.237Z,1012.91
2022-09-07T05:52:07.961Z,1012.80
2022-09-07T05:53:08.489Z,1012.72
2022-09-07T05:54:07.622Z,1012.75
2022-09-07T05:55:28.671Z,1012.83
2022-09-07T05:56:11.072Z,1012.90
2022-09-07T05:57:08.593Z,1012.88
2022-09-07T05:58:08.492Z,1012.95
2022-09-07T05:59:07.559Z,1012.89
2022-09-07T06:00:07.559Z,1012.81
2022-09-07T06:01:07.546Z,1012.72
2022-09-07T06:02:08.455Z,1012.76
2022-09-07T06:03:08.609Z,1012.83
2022-09-07T06:04:09.581Z,1012.85
2022-09-07T06:05:08.330Z,1012.79
2022-09-07T06:06:10.054Z,1012.76
2022-09-07T06:07:24.366Z,1012.74
2022-09-07T06:08:08.392Z,1012.67
2022-09-07T06:09:08.194Z,1012.63
2022-09-07T06:11:09.284Z,1012.63
2022-09-07T06:12:07.952Z,1012.62
2022-09-07T06:13:08.335Z,1012.63
2022-09-07T06:14:07.328Z,1012.67
2022-09-07T06:15:07.365Z,1012.64
2022-09-07T06:16:08.346Z,1012.66
2022-09-07T06:17:07.300Z,1012.72
2022-09-07T06:18:08.016Z,1012.68
2022-09-07T06:19:07.995Z,1012.70
2022-09-07T06:20:08.166Z,1012.66
2022-09-07T06:21:08.077Z,1012.64
2022-09-07T06:22:07.218Z,1012.66
2022-09-07T06:23:07.403Z,1012.65
2022-09-07T06:24:07.201Z,1012.70
2022-09-07T06:25:08.006Z,1012.73
2022-09-07T06:26:07.191Z,1012.74
2022-09-07T06:27:08.008Z,1012.71
2022-09-07T06:28:07.973Z,1012.79
2022-09-07T06:29:07.158Z,1012.80
2022-09-07T06:30:07.976Z,1012.82
2022-09-07T06:31:09.099Z,1012.82
2022-09-07T06:33:08.973Z,1012.76
2022-09-07T06:34:07.853Z,1012.83
2022-09-07T06:35:07.044Z,1012.88
2022-09-07T06:36:07.913Z,1012.86
2022-09-07T06:37:07.818Z,1012.85
2022-09-07T06:38:07.977Z,1012.80
2022-09-07T06:39:06.994Z,1012.75
2022-09-07T06:40:08.118Z,1012.78
2022-09-07T06:42:07.951Z,1012.70
2022-09-07T06:43:07.858Z,1012.70
2022-09-07T06:44:07.224Z,1012.68
2022-09-07T06:45:14.064Z,1012.68
2022-09-07T06:47:08.393Z,1012.66
2022-09-07T06:48:07.794Z,1012.64
2022-09-07T06:49:07.685Z,1012.65
2022-09-07T06:50:07.861Z,1012.60
2022-09-07T06:51:07.783Z,1012.67
2022-09-07T06:52:07.701Z,1012.65
2022-09-07T06:55:09.714Z,1012.67
2022-09-07T06:56:06.755Z,1012.64
2022-09-07T06:57:06.737Z,1012.67
2022-09-07T06:58:07.188Z,1012.66
2022-09-07T06:59:07.496Z,1012.66
2022-09-07T07:00:06.706Z,1012.65
2022-09-07T07:01:06.761Z,1012.64
2022-09-07T07:02:07.501Z,1012.66
2022-09-07T07:03:06.755Z,1012.66
2022-09-07T07:04:29.322Z,1012.66
2022-09-07T07:05:07.444Z,1012.63
2022-09-07T07:06:06.628Z,1012.66
2022-09-07T07:07:06.616Z,1012.63
2022-09-07T07:08:07.267Z,1012.64
2022-09-07T07:09:06.563Z,1012.67
2022-09-07T07:10:07.478Z,1012.69
2022-09-07T07:11:06.588Z,1012.71
2022-09-07T07:12:07.529Z,1012.65
2022-09-07T07:13:07.437Z,1012.68
2022-09-07T07:14:07.061Z,1012.68
2022-09-07T07:15:06.455Z,1012.65
2022-09-07T07:16:07.504Z,1012.62
2022-09-07T07:17:07.301Z,1012.61
2022-09-07T07:18:20.455Z,1012.57
2022-09-07T07:19:07.412Z,1012.53
2022-09-07T07:20:07.259Z,1012.53
2022-09-07T07:21:06.395Z,1012.50
2022-09-07T07:23:07.413Z,1012.49
2022-09-07T07:24:09.594Z,1012.49
2022-09-07T07:25:07.432Z,1012.44
2022-09-07T07:26:06.376Z,1012.42
2022-09-07T07:27:07.114Z,1012.40
2022-09-07T07:29:07.257Z,1012.43
2022-09-07T07:30:07.085Z,1012.38
2022-09-07T07:31:09.908Z,1012.40
2022-09-07T07:32:07.255Z,1012.36
2022-09-07T07:33:07.305Z,1012.35
2022-09-07T07:34:06.255Z,1012.30
2022-09-07T07:35:07.121Z,1012.28
2022-09-07T07:36:07.599Z,1012.25
2022-09-07T07:37:06.953Z,1012.24
2022-09-07T07:39:08.480Z,1012.14
2022-09-07T07:40:14.592Z,1012.09
2022-09-07T07:42:07.111Z,1012.08
2022-09-07T07:43:07.641Z,1012.12
2022-09-07T07:44:06.071Z,1012.18
2022-09-07T07:46:08.542Z,1012.15
2022-09-07T07:47:06.078Z,1012.13
2022-09-07T07:48:06.887Z,1011.99
2022-09-07T07:49:06.789Z,1011.90
2022-09-07T07:51:11.888Z,1011.79
2022-09-07T07:54:08.392Z,1011.84
2022-09-07T07:55:42.981Z,1011.84
2022-09-07T07:56:07.660Z,1011.87
2022-09-07T07:57:05.910Z,1011.89
2022-09-07T07:58:06.693Z,1011.92
2022-09-07T07:59:06.857Z,1011.92
2022-09-07T08:00:06.758Z,1011.88
2022-09-07T08:01:06.722Z,1011.82
2022-09-07T08:02:06.475Z,1011.86
2022-09-07T08:03:06.285Z,1011.79
2022-09-07T08:04:06.355Z,1011.74
2022-09-07T08:05:06.549Z,1011.74
2022-09-07T08:06:06.701Z,1011.68
2022-09-07T08:07:10.750Z,1011.73
2022-09-07T08:08:05.763Z,1011.70
2022-09-07T08:09:05.724Z,1011.61
2022-09-07T08:10:06.587Z,1011.56
2022-09-07T08:11:06.496Z,1011.49
2022-09-07T08:12:06.633Z,1011.52
2022-09-07T08:13:07.112Z,1011.47
2022-09-07T08:14:06.438Z,1011.46
2022-09-07T08:15:06.616Z,1011.45
2022-09-07T08:16:06.529Z,1011.40
2022-09-07T08:17:06.408Z,1011.38
2022-09-07T08:18:05.595Z,1011.37
2022-09-07T08:19:06.470Z,1011.38
2022-09-07T08:20:05.568Z,1011.43
2022-09-07T08:21:06.536Z,1011.46
2022-09-07T08:22:06.400Z,1011.42
2022-09-07T08:23:06.347Z,1011.40
2022-09-07T08:24:06.541Z,1011.36
2022-09-07T08:25:06.408Z,1011.28
2022-09-07T08:26:06.309Z,1011.24
2022-09-07T08:27:06.475Z,1010.86
2022-09-07T08:28:05.507Z,1010.80
2022-09-07T08:29:05.469Z,1010.75
2022-09-07T08:30:05.411Z,1010.74
2022-09-07T08:31:06.009Z,1010.78
2022-09-07T08:32:06.254Z,1010.76
2022-09-07T08:33:05.433Z,1010.82
2022-09-07T08:34:06.321Z,1010.89
2022-09-07T08:35:06.824Z,1010.96
2022-09-07T08:36:06.170Z,1010.95
2022-09-07T08:37:06.287Z,1010.94
2022-09-07T08:38:05.343Z,1010.85
2022-09-07T08:39:06.090Z,1010.87
2022-09-07T08:40:06.349Z,1010.88
2022-09-07T08:41:05.265Z,1010.92
2022-09-07T08:42:05.251Z,1010.87
2022-09-07T08:43:06.214Z,1010.81
2022-09-07T08:44:05.346Z,1010.82
2022-09-07T08:45:05.252Z,1010.85
2022-09-07T08:46:05.216Z,1010.95
2022-09-07T08:47:06.125Z,1010.88
2022-09-07T08:48:05.172Z,1011.00
2022-09-07T08:49:05.156Z,1011.03
2022-09-07T08:50:06.055Z,1011.17
2022-09-07T08:51:05.957Z,1011.25
2022-09-07T08:52:05.860Z,1011.39
2022-09-07T08:53:05.096Z,1011.48
2022-09-07T08:54:05.103Z,1011.54
2022-09-07T08:55:05.948Z,1011.54
2022-09-07T08:56:05.568Z,1011.56
2022-09-07T08:57:22.150Z,1011.58
2022-09-07T08:58:45.300Z,1011.66
2022-09-07T08:59:07.440Z,1011.65
2022-09-07T09:00:05.861Z,1011.68
2022-09-07T09:04:23.202Z,1011.92
2022-09-07T09:05:21.541Z,1011.89
2022-09-07T09:06:06.936Z,1012.03
2022-09-07T09:07:05.115Z,1012.16
2022-09-07T09:08:05.394Z,1012.26
2022-09-07T09:09:04.870Z,1012.18
2022-09-07T09:10:05.694Z,1012.18
2022-09-07T09:11:05.832Z,1012.22
2022-09-07T09:12:05.748Z,1012.19
2022-09-07T09:13:04.844Z,1012.15
2022-09-07T09:14:04.816Z,1012.11
2022-09-07T09:15:05.706Z,1012.15
2022-09-07T09:16:05.681Z,1012.24
2022-09-07T09:17:04.759Z,1012.37
2022-09-07T09:18:05.780Z,1012.36
2022-09-07T09:19:04.730Z,1012.34
2022-09-07T09:20:05.200Z,1012.42
2022-09-07T09:21:05.647Z,1012.40
2022-09-07T09:22:05.554Z,1012.43
2022-09-07T09:23:05.457Z,1012.48
2022-09-07T09:24:04.680Z,1012.48
2022-09-07T09:25:04.651Z,1012.42
2022-09-07T09:26:04.626Z,1012.46
2022-09-07T09:27:04.612Z,1012.44
2022-09-07T09:28:05.480Z,1012.50
2022-09-07T09:29:04.595Z,1012.52
2022-09-07T09:30:04.594Z,1012.49
2022-09-07T09:31:04.615Z,1012.49
2022-09-07T09:32:04.545Z,1012.49
2022-09-07T09:33:04.557Z,1012.43
2022-09-07T09:34:05.417Z,1012.48
2022-09-07T09:35:04.555Z,1012.44
2022-09-07T09:36:04.496Z,1012.40
2022-09-07T09:37:04.484Z,1012.43
2022-09-07T09:38:05.286Z,1012.43
2022-09-07T09:39:04.472Z,1012.39
2022-09-07T09:40:04.495Z,1012.35
2022-09-07T09:41:04.429Z,1012.35
2022-09-07T09:42:04.407Z,1012.45
2022-09-07T09:43:04.482Z,1012.40
2022-09-07T09:44:04.426Z,1012.44
2022-09-07T09:45:04.375Z,1012.45
2022-09-07T09:46:12.689Z,1012.44
2022-09-07T09:48:06.169Z,1012.46
2022-09-07T09:49:05.252Z,1012.48
2022-09-07T09:50:05.160Z,1012.48
2022-09-07T09:53:05.287Z,1012.46
2022-09-07T09:54:05.047Z,1012.47
2022-09-07T09:55:33.341Z,1012.47
2022-09-07T09:56:05.369Z,1012.48
2022-09-07T09:57:04.997Z,1012.50
2022-09-07T09:59:56.742Z,1012.52
2022-09-07T10:00:10.516Z,1012.48
2022-09-07T10:01:21.746Z,1012.49
2022-09-07T10:04:11.717Z,1012.36
2022-09-07T10:05:05.088Z,1012.43
2022-09-07T10:06:04.087Z,1012.39
2022-09-07T10:07:04.099Z,1012.34
2022-09-07T10:08:04.968Z,1012.33
2022-09-07T10:09:04.062Z,1012.33
2022-09-07T10:10:04.021Z,1012.32
2022-09-07T10:11:04.372Z,1012.30
2022-09-07T10:12:06.130Z,1012.29
2022-09-07T10:13:05.421Z,1012.23
2022-09-07T10:14:03.993Z,1012.24
2022-09-07T10:15:03.972Z,1012.16
2022-09-07T10:16:04.068Z,1012.17
2022-09-07T10:17:04.014Z,1012.12
2022-09-07T10:18:03.920Z,1012.09
2022-09-07T10:19:03.892Z,1012.07
2022-09-07T10:20:04.868Z,1012.11
2022-09-07T10:21:04.742Z,1012.00
2022-09-07T10:22:04.769Z,1011.99
2022-09-07T10:23:03.898Z,1012.08
2022-09-07T10:24:04.271Z,1012.08
2022-09-07T10:25:03.894Z,1012.07
2022-09-07T10:26:03.805Z,1012.04
2022-09-07T10:27:04.678Z,1012.04
2022-09-07T10:28:03.830Z,1012.02
2022-09-07T10:29:07.153Z,1012.10
2022-09-07T10:30:06.691Z,1012.12
2022-09-07T10:31:03.972Z,1012.15
2022-09-07T10:32:03.758Z,1012.21
2022-09-07T10:33:04.626Z,1012.17
2022-09-07T10:35:05.510Z,1012.12
2022-09-07T10:36:03.651Z,1012.09
2022-09-07T10:37:03.698Z,1012.08
2022-09-07T10:38:03.705Z,1012.07
2022-09-07T10:39:03.769Z,1012.07
2022-09-07T10:40:04.586Z,1012.01
2022-09-07T10:41:04.365Z,1012.03
2022-09-07T10:42:03.657Z,1012.03
2022-09-07T10:44:05.350Z,1012.09
2022-09-07T10:45:03.691Z,1012.08
2022-09-07T10:46:03.567Z,1012.15
2022-09-07T10:47:05.033Z,1012.08
2022-09-07T10:48:03.513Z,1012.05
2022-09-07T10:49:03.516Z,1012.07
2022-09-07T10:51:12.695Z,1012.09
2022-09-07T10:52:04.466Z,1012.08
2022-09-07T10:53:23.503Z,1012.07
2022-09-07T10:55:04.444Z,1012.07
2022-09-07T10:56:03.473Z,1012.03
2022-09-07T10:57:03.428Z,1012.05
2022-09-07T10:58:03.368Z,1012.05
2022-09-07T10:59:04.077Z,1012.00
2022-09-07T11:00:07.969Z,1011.99
2022-09-07T11:01:04.309Z,1011.96
2022-09-07T11:02:03.358Z,1011.96
2022-09-07T11:04:04.439Z,1011.96
2022-09-07T11:05:04.108Z,1011.98
2022-09-07T11:06:03.297Z,1011.97
2022-09-07T11:07:04.172Z,1012.01
2022-09-07T11:08:03.266Z,1012.04
2022-09-07T11:09:19.655Z,1012.03
2022-09-07T11:10:05.214Z,1011.97
2022-09-07T11:11:04.034Z,1011.96
2022-09-07T11:12:04.049Z,1011.98
2022-09-07T11:13:10.092Z,1011.90
2022-09-07T11:14:13.145Z,1011.92
2022-09-07T11:15:04.163Z,1011.85
2022-09-07T11:16:04.117Z,1011.81
2022-09-07T11:17:04.022Z,1011.82
2022-09-07T11:18:03.877Z,1011.81
2022-09-07T11:20:05.529Z,1011.82
2022-09-07T11:21:03.068Z,1011.88
2022-09-07T11:22:03.090Z,1011.88
2022-09-07T11:23:03.913Z,1011.81
2022-09-07T11:24:03.021Z,1011.85
2022-09-07T11:26:04.021Z,1011.84
2022-09-07T11:27:03.789Z,1011.86
2022-09-07T11:28:03.943Z,1011.84
2022-09-07T11:30:03.974Z,1011.87
2022-09-07T11:31:03.968Z,1011.89
2022-09-07T11:32:02.956Z,1011.87
2022-09-07T11:33:03.733Z,1011.78
2022-09-07T11:35:03.897Z,1011.77
2022-09-07T11:36:03.346Z,1011.74
2022-09-07T11:37:03.289Z,1011.74
2022-09-07T11:38:03.759Z,1011.72
2022-09-07T11:39:03.655Z,1011.70
2022-09-07T11:40:02.864Z,1011.75
2022-09-07T11:41:03.718Z,1011.69
2022-09-07T11:42:42.864Z,1011.68
2022-09-07T11:43:03.866Z,1011.70
2022-09-07T11:44:02.790Z,1011.68
2022-09-07T11:45:03.345Z,1011.61
2022-09-07T11:46:02.827Z,1011.58
2022-09-07T11:47:03.387Z,1011.54
2022-09-07T11:48:03.561Z,1011.60
2022-09-07T11:49:04.593Z,1011.57
2022-09-07T11:50:03.196Z,1011.57
2022-09-07T11:51:02.672Z,1011.58
2022-09-07T11:52:06.411Z,1011.53
2022-09-07T11:53:03.595Z,1011.59
2022-09-07T11:54:02.634Z,1011.59
2022-09-07T11:55:02.682Z,1011.56
2022-09-07T11:56:03.598Z,1011.57
2022-09-07T11:57:03.465Z,1011.58
2022-09-07T11:58:03.371Z,1011.53
2022-09-07T11:59:02.618Z,1011.53
2022-09-07T12:00:03.427Z,1011.59
2022-09-07T12:01:03.338Z,1011.52
2022-09-07T12:02:03.500Z,1011.50
2022-09-07T12:03:03.385Z,1011.47
2022-09-07T12:04:02.785Z,1011.47
2022-09-07T12:05:03.297Z,1011.51
2022-09-07T12:06:03.363Z,1011.45
2022-09-07T12:07:03.270Z,1011.44
2022-09-07T12:08:02.492Z,1011.51
2022-09-07T12:09:03.332Z,1011.45
2022-09-07T12:10:02.421Z,1011.43
2022-09-07T12:11:02.432Z,1011.42
2022-09-07T12:12:02.416Z,1011.43
2022-09-07T12:13:02.403Z,1011.42
2022-09-07T12:14:02.379Z,1011.41
2022-09-07T12:15:02.463Z,1011.34
2022-09-07T12:16:03.233Z,1011.36
2022-09-07T12:17:02.337Z,1011.38
2022-09-07T12:18:03.255Z,1011.39
2022-09-07T12:19:02.446Z,1011.37
2022-09-07T12:20:02.298Z,1011.38
2022-09-07T12:21:03.726Z,1011.34
2022-09-07T12:22:03.108Z,1011.34
2022-09-07T12:23:04.826Z,1011.34
2022-09-07T12:24:03.181Z,1011.27
2022-09-07T12:25:03.082Z,1011.31
2022-09-07T12:26:02.237Z,1011.34
2022-09-07T12:27:02.398Z,1011.29
2022-09-07T12:28:03.051Z,1011.32
2022-09-07T12:29:02.951Z,1011.29
2022-09-07T12:30:02.194Z,1011.28
2022-09-07T12:31:03.040Z,1011.23
2022-09-07T12:33:03.152Z,1011.23
2022-09-07T12:34:02.113Z,1011.16
2022-09-07T12:35:02.127Z,1011.17
2022-09-07T12:36:02.165Z,1011.15
2022-09-07T12:37:02.055Z,1011.21
2022-09-07T12:38:02.319Z,1011.19
2022-09-07T12:39:02.316Z,1011.15
2022-09-07T12:40:03.049Z,1011.19
2022-09-07T12:41:02.056Z,1011.15
2022-09-07T12:43:09.948Z,1011.14